createdAt,value
2022-09-12T00:00:12.674Z,86.01
2022-09-12T00:01:35.708Z,86.10
2022-09-12T00:02:38.825Z,86.01
2022-09-12T00:03:42.020Z,86.07
2022-09-12T00:04:45.417Z,86.08
2022-09-12T00:05:48.426Z,86.03
2022-09-12T00:06:51.410Z,86.02
2022-09-12T00:07:54.701Z,86.00
2022-09-12T00:09:04.493Z,86.03
2022-09-12T00:10:08.469Z,86.03
2022-09-12T00:11:13.698Z,86.11
2022-09-12T00:12:16.677Z,86.02
2022-09-12T00:13:19.770Z,86.10
2022-09-12T00:14:22.815Z,86.03
2022-09-12T00:15:25.768Z,86.02
2022-09-12T00:16:31.452Z,86.15
2022-09-12T00:17:35.526Z,86.15
2022-09-12T00:18:38.615Z,86.18
2022-09-12T00:19:41.666Z,86.17
2022-09-12T00:20:46.524Z,86.20
2022-09-12T00:21:49.836Z,86.20
2022-09-12T00:22:52.784Z,86.34
2022-09-12T00:23:56.045Z,86.13
2022-09-12T00:25:02.582Z,86.21
2022-09-12T00:26:07.310Z,86.26
2022-09-12T00:27:10.477Z,86.14
2022-09-12T00:28:15.318Z,86.14
2022-09-12T00:29:21.015Z,86.19
2022-09-12T00:30:24.175Z,86.20
2022-09-12T00:31:28.280Z,86.20
2022-09-12T00:32:31.630Z,86.17
2022-09-12T00:33:36.013Z,86.16
2022-09-12T00:34:39.586Z,86.11
2022-09-12T00:35:49.067Z,86.20
2022-09-12T00:36:52.240Z,86.19
2022-09-12T00:37:55.860Z,86.28
2022-09-12T00:38:59.462Z,86.25
2022-09-12T00:40:03.452Z,86.26
2022-09-12T00:41:06.640Z,86.19
2022-09-12T00:42:10.761Z,86.06
2022-09-12T00:43:33.777Z,86.04
2022-09-12T00:44:44.778Z,86.12
2022-09-12T00:45:48.032Z,86.12
2022-09-12T00:46:55.103Z,86.10
2022-09-12T00:48:03.632Z,86.07
2022-09-12T00:49:43.151Z,86.03
2022-09-12T00:50:46.253Z,86.16
2022-09-12T00:51:54.877Z,86.22
2022-09-12T00:53:06.586Z,86.08
2022-09-12T00:54:14.575Z,86.10
2022-09-12T00:55:28.152Z,85.98
2022-09-12T00:56:31.550Z,86.09
2022-09-12T00:57:59.620Z,86.04
2022-09-12T00:59:15.544Z,85.97
2022-09-12T01:00:22.879Z,85.97
2022-09-12T01:01:29.220Z,86.10
2022-09-12T01:02:38.223Z,85.99
2022-09-12T01:03:41.969Z,85.96
2022-09-12T01:04:45.295Z,86.03
2022-09-12T01:06:11.379Z,86.09
2022-09-12T01:07:15.656Z,86.21
2022-09-12T01:08:20.062Z,86.13
2022-09-12T01:09:24.468Z,86.02
2022-09-12T01:10:27.611Z,86.05
2022-09-12T01:11:34.554Z,86.05
2022-09-12T01:12:40.991Z,86.00
2022-09-12T01:13:45.341Z,86.03
2022-09-12T01:14:48.360Z,86.10
2022-09-12T01:15:51.819Z,86.03
2022-09-12T01:16:54.892Z,85.98
2022-09-12T01:18:04.717Z,86.03
2022-09-12T01:19:35.635Z,86.11
2022-09-12T01:21:27.726Z,86.01
2022-09-12T01:23:03.617Z,86.07
2022-09-12T01:24:09.400Z,85.99
2022-09-12T01:25:34.131Z,86.00
2022-09-12T01:26:52.115Z,85.98
2022-09-12T01:28:23.499Z,86.16
2022-09-12T01:29:35.271Z,86.22
2022-09-12T01:30:56.228Z,86.30
2022-09-12T01:32:33.396Z,86.27
2022-09-12T01:34:07.016Z,86.31
2022-09-12T01:35:23.115Z,86.38
2022-09-12T01:36:38.624Z,86.52
2022-09-12T01:38:08.682Z,86.41
2022-09-12T01:39:28.141Z,86.46
2022-09-12T01:40:45.971Z,86.59
2022-09-12T01:42:16.129Z,86.52
2022-09-12T01:43:40.201Z,86.61
2022-09-12T01:44:54.278Z,86.80
2022-09-12T01:46:12.100Z,86.39
2022-09-12T01:47:31.306Z,86.59
2022-09-12T01:48:40.812Z,86.68
2022-09-12T01:49:59.705Z,86.62
2022-09-12T01:51:13.603Z,86.62
2022-09-12T01:52:25.302Z,86.69
2022-09-12T01:53:36.091Z,86.60
2022-09-12T01:54:46.498Z,86.72
2022-09-12T01:55:56.188Z,86.88
2022-09-12T01:57:04.276Z,86.90
2022-09-12T01:58:20.109Z,86.90
2022-09-12T01:59:33.512Z,87.06
2022-09-12T02:00:55.940Z,86.93
2022-09-12T02:02:02.086Z,86.89
2022-09-12T02:03:21.308Z,87.01
2022-09-12T02:04:36.866Z,86.93
2022-09-12T02:06:03.312Z,86.94
2022-09-12T02:07:13.412Z,86.91
2022-09-12T02:08:48.700Z,87.03
2022-09-12T02:10:18.059Z,87.00
2022-09-12T02:11:21.840Z,86.96
2022-09-12T02:12:35.170Z,86.95
2022-09-12T02:13:43.863Z,86.92
2022-09-12T02:14:54.119Z,87.03
2022-09-12T02:16:08.669Z,87.07
2022-09-12T02:17:15.122Z,87.08
2022-09-12T02:18:19.991Z,87.08
2022-09-12T02:19:29.767Z,86.95
2022-09-12T02:20:48.497Z,86.91
2022-09-12T02:21:58.379Z,86.96
2022-09-12T02:23:03.171Z,86.96
2022-09-12T02:24:10.600Z,86.88
2022-09-12T02:25:18.506Z,86.75
2022-09-12T02:26:26.150Z,86.93
2022-09-12T02:27:44.839Z,86.83
2022-09-12T02:28:48.220Z,86.91
2022-09-12T02:29:52.400Z,86.91
2022-09-12T02:31:23.451Z,86.94
2022-09-12T02:32:31.356Z,86.71
2022-09-12T02:33:49.425Z,86.77
2022-09-12T02:35:00.967Z,86.87
2022-09-12T02:36:31.950Z,86.70
2022-09-12T02:37:53.714Z,86.86
2022-09-12T02:38:56.860Z,86.82
2022-09-12T02:40:01.211Z,86.80
2022-09-12T02:41:04.520Z,86.68
2022-09-12T02:42:08.016Z,86.71
2022-09-12T02:43:11.479Z,86.47
2022-09-12T02:44:14.614Z,86.56
2022-09-12T02:45:18.550Z,86.53
2022-09-12T02:46:33.401Z,86.47
2022-09-12T02:47:44.677Z,86.43
2022-09-12T02:48:48.730Z,86.34
2022-09-12T02:49:52.805Z,86.40
2022-09-12T02:50:56.532Z,86.43
2022-09-12T02:52:00.133Z,86.56
2022-09-12T02:53:05.818Z,86.34
2022-09-12T02:54:10.241Z,86.34
2022-09-12T02:55:15.051Z,86.17
2022-09-12T02:56:31.773Z,86.21
2022-09-12T02:57:34.781Z,86.13
2022-09-12T02:58:37.966Z,86.02
2022-09-12T02:59:41.173Z,85.87
2022-09-12T03:00:47.168Z,85.84
2022-09-12T03:02:28.472Z,85.75
2022-09-12T03:03:50.346Z,85.49
2022-09-12T03:05:22.268Z,85.70
2022-09-12T03:06:38.077Z,85.79
2022-09-12T03:07:49.946Z,86.10
2022-09-12T03:09:34.586Z,86.03
2022-09-12T03:10:53.727Z,86.00
2022-09-12T03:12:12.118Z,85.88
2022-09-12T03:13:34.525Z,85.93
2022-09-12T03:15:16.197Z,85.96
2022-09-12T03:16:25.106Z,85.93
2022-09-12T03:17:40.217Z,86.04
2022-09-12T03:19:22.259Z,85.91
2022-09-12T03:21:04.691Z,85.88
2022-09-12T03:22:28.776Z,85.56
2022-09-12T03:23:45.760Z,85.58
2022-09-12T03:25:00.843Z,85.64
2022-09-12T03:26:14.192Z,85.42
2022-09-12T03:27:28.113Z,85.54
2022-09-12T03:28:45.730Z,85.55
2022-09-12T03:29:50.820Z,85.51
2022-09-12T03:30:57.063Z,85.64
2022-09-12T03:32:00.173Z,85.61
2022-09-12T03:33:03.249Z,85.64
2022-09-12T03:34:06.978Z,85.60
2022-09-12T03:35:11.087Z,85.38
2022-09-12T03:36:22.703Z,85.44
2022-09-12T03:37:25.781Z,85.42
2022-09-12T03:38:29.278Z,85.62
2022-09-12T03:39:33.005Z,85.54
2022-09-12T03:40:37.351Z,85.70
2022-09-12T03:41:43.262Z,85.71
2022-09-12T03:42:46.388Z,85.62
2022-09-12T03:43:50.770Z,85.76
2022-09-12T03:44:53.816Z,85.68
2022-09-12T03:45:56.977Z,85.64
2022-09-12T03:47:00.371Z,85.49
2022-09-12T03:48:04.818Z,85.38
2022-09-12T03:49:07.886Z,85.11
2022-09-12T03:50:10.951Z,85.28
2022-09-12T03:51:14.040Z,85.15
2022-09-12T03:52:17.168Z,85.15
2022-09-12T03:53:20.166Z,85.17
2022-09-12T03:54:23.441Z,85.06
2022-09-12T03:55:26.923Z,85.02
2022-09-12T03:56:30.735Z,85.13
2022-09-12T03:57:33.853Z,85.05
2022-09-12T03:58:37.163Z,85.23
2022-09-12T03:59:40.462Z,85.17
2022-09-12T04:00:44.476Z,85.07
2022-09-12T04:01:47.508Z,85.10
2022-09-12T04:02:55.286Z,84.77
2022-09-12T04:03:58.416Z,84.86
2022-09-12T04:05:01.632Z,84.91
2022-09-12T04:06:07.081Z,85.02
2022-09-12T04:07:11.687Z,85.09
2022-09-12T04:08:15.215Z,84.89
2022-09-12T04:09:18.330Z,84.99
2022-09-12T04:10:21.528Z,84.93
2022-09-12T04:11:24.860Z,85.02
2022-09-12T04:12:29.844Z,84.96
2022-09-12T04:13:34.775Z,85.02
2022-09-12T04:14:37.876Z,84.98
2022-09-12T04:15:40.927Z,84.85
2022-09-12T04:16:44.133Z,84.75
2022-09-12T04:17:47.181Z,84.79
2022-09-12T04:18:50.200Z,84.79
2022-09-12T04:19:53.310Z,85.03
2022-09-12T04:20:56.321Z,85.12
2022-09-12T04:21:59.718Z,84.94
2022-09-12T04:23:02.852Z,84.97
2022-09-12T04:24:06.088Z,84.91
2022-09-12T04:25:09.726Z,85.04
2022-09-12T04:26:17.566Z,85.07
2022-09-12T04:27:20.537Z,85.05
2022-09-12T04:28:24.413Z,85.18
2022-09-12T04:29:28.102Z,85.02
2022-09-12T04:30:31.321Z,84.98
2022-09-12T04:31:34.361Z,84.99
2022-09-12T04:32:38.070Z,85.28
2022-09-12T04:33:44.125Z,85.09
2022-09-12T04:34:47.266Z,85.19
2022-09-12T04:35:50.721Z,85.22
2022-09-12T04:36:53.937Z,85.25
2022-09-12T04:37:57.366Z,85.03
2022-09-12T04:39:02.655Z,85.11
2022-09-12T04:40:06.117Z,84.97
2022-09-12T04:41:27.349Z,84.85
2022-09-12T04:42:30.270Z,84.86
2022-09-12T04:43:33.242Z,85.11
2022-09-12T04:44:36.249Z,84.98
2022-09-12T04:45:39.373Z,84.97
2022-09-12T04:46:45.107Z,85.09
2022-09-12T04:47:48.935Z,84.95
2022-09-12T04:48:56.080Z,84.95
2022-09-12T04:50:00.133Z,84.84
2022-09-12T04:51:18.247Z,84.80
2022-09-12T04:52:21.292Z,84.72
2022-09-12T04:53:24.326Z,84.82
2022-09-12T04:54:27.428Z,84.62
2022-09-12T04:55:30.521Z,84.64
2022-09-12T04:56:37.055Z,84.67
2022-09-12T04:57:40.995Z,84.55
2022-09-12T04:58:46.537Z,84.60
2022-09-12T04:59:50.028Z,84.55
2022-09-12T05:00:54.495Z,84.70
2022-09-12T05:01:57.662Z,84.77
2022-09-12T05:03:00.790Z,84.61
2022-09-12T05:04:04.484Z,84.42
2022-09-12T05:05:08.550Z,84.12
2022-09-12T05:06:15.374Z,83.99
2022-09-12T05:07:19.597Z,83.97
2022-09-12T05:08:22.876Z,83.84
2022-09-12T05:09:25.924Z,83.84
2022-09-12T05:10:29.008Z,83.77
2022-09-12T05:12:02.737Z,83.78
2022-09-12T05:12:59.794Z,83.65
2022-09-12T05:14:04.171Z,83.51
2022-09-12T05:15:07.976Z,83.28
2022-09-12T05:16:13.874Z,82.92
2022-09-12T05:17:17.432Z,82.87
2022-09-12T05:18:21.591Z,83.28
2022-09-12T05:19:24.623Z,83.35
2022-09-12T05:20:27.778Z,83.33
2022-09-12T05:21:36.896Z,83.23
2022-09-12T05:22:40.024Z,83.32
2022-09-12T05:23:43.482Z,83.40
2022-09-12T05:24:50.676Z,83.30
2022-09-12T05:25:56.659Z,83.54
2022-09-12T05:26:59.960Z,83.53
2022-09-12T05:28:03.137Z,83.55
2022-09-12T05:29:07.342Z,83.69
2022-09-12T05:30:18.684Z,83.70
2022-09-12T05:31:31.544Z,84.00
2022-09-12T05:32:35.519Z,84.32
2022-09-12T05:33:40.688Z,84.20
2022-09-12T05:34:43.829Z,84.59
2022-09-12T05:35:52.510Z,84.69
2022-09-12T05:36:55.745Z,84.84
2022-09-12T05:37:59.179Z,85.20
2022-09-12T05:39:02.267Z,85.38
2022-09-12T05:40:07.876Z,85.42
2022-09-12T05:41:17.569Z,85.79
2022-09-12T05:42:22.059Z,86.05
2022-09-12T05:43:25.119Z,86.61
2022-09-12T05:44:28.507Z,86.49
2022-09-12T05:45:32.578Z,86.59
2022-09-12T05:46:41.648Z,86.71
2022-09-12T05:47:47.346Z,87.12
2022-09-12T05:48:55.611Z,87.45
2022-09-12T05:50:00.017Z,87.33
2022-09-12T05:51:09.090Z,87.31
2022-09-12T05:52:12.800Z,87.21
2022-09-12T05:53:15.944Z,87.35
2022-09-12T05:54:20.817Z,87.12
2022-09-12T05:55:24.608Z,87.10
2022-09-12T05:56:33.402Z,87.14
2022-09-12T05:57:36.632Z,87.03
2022-09-12T05:58:42.729Z,86.93
2022-09-12T05:59:46.206Z,87.04
2022-09-12T06:00:51.687Z,86.94
2022-09-12T06:01:54.923Z,86.95
2022-09-12T06:02:58.056Z,86.83
2022-09-12T06:04:04.791Z,86.61
2022-09-12T06:05:08.229Z,86.55
2022-09-12T06:06:15.358Z,86.89
2022-09-12T06:07:18.486Z,86.93
2022-09-12T06:08:21.598Z,87.08
2022-09-12T06:09:25.862Z,87.27
2022-09-12T06:10:29.010Z,87.30
2022-09-12T06:11:35.035Z,87.38
2022-09-12T06:12:38.250Z,87.38
2022-09-12T06:13:44.505Z,87.58
2022-09-12T06:14:48.049Z,87.74
2022-09-12T06:15:51.505Z,87.77
2022-09-12T06:16:54.802Z,88.10
2022-09-12T06:17:57.933Z,88.11
2022-09-12T06:19:07.373Z,88.12
2022-09-12T06:20:10.507Z,88.06
2022-09-12T06:21:14.212Z,88.07
2022-09-12T06:22:19.057Z,88.08
2022-09-12T06:23:22.354Z,87.98
2022-09-12T06:24:25.320Z,87.98
2022-09-12T06:25:31.416Z,88.10
2022-09-12T06:26:34.975Z,88.22
2022-09-12T06:27:38.928Z,88.44
2022-09-12T06:28:43.286Z,88.39
2022-09-12T06:29:46.387Z,88.47
2022-09-12T06:30:49.598Z,88.37
2022-09-12T06:31:52.821Z,88.36
2022-09-12T06:32:57.104Z,88.62
2022-09-12T06:34:02.631Z,88.40
2022-09-12T06:35:07.607Z,88.39
2022-09-12T06:36:26.554Z,88.29
2022-09-12T06:37:29.856Z,88.13
2022-09-12T06:38:33.560Z,88.47
2022-09-12T06:39:38.609Z,88.09
2022-09-12T06:40:46.556Z,87.95
2022-09-12T06:41:51.616Z,88.11
2022-09-12T06:42:54.814Z,87.83
2022-09-12T06:43:58.856Z,87.73
2022-09-12T06:45:01.854Z,87.55
2022-09-12T06:46:05.196Z,87.49
2022-09-12T06:47:08.707Z,87.48
2022-09-12T06:48:11.744Z,87.30
2022-09-12T06:49:15.598Z,87.28
2022-09-12T06:50:18.666Z,87.20
2022-09-12T06:51:21.917Z,87.01
2022-09-12T06:52:25.170Z,86.70
2022-09-12T06:53:30.337Z,86.19
2022-09-12T06:54:34.004Z,85.70
2022-09-12T06:55:36.967Z,84.80
2022-09-12T06:56:40.035Z,83.81
2022-09-12T06:57:44.258Z,82.52
2022-09-12T06:58:49.137Z,81.78
2022-09-12T06:59:52.141Z,81.04
2022-09-12T07:01:09.769Z,81.31
2022-09-12T07:02:13.109Z,79.51
2022-09-12T07:03:16.182Z,79.86
2022-09-12T07:04:20.571Z,79.52
2022-09-12T07:05:23.663Z,79.34
2022-09-12T07:06:34.444Z,79.45
2022-09-12T07:07:38.217Z,78.05
2022-09-12T07:08:41.366Z,78.48
2022-09-12T07:09:44.802Z,77.96
2022-09-12T07:10:47.920Z,77.05
2022-09-12T07:11:51.031Z,76.08
2022-09-12T07:12:55.301Z,77.67
2022-09-12T07:14:00.143Z,77.63
2022-09-12T07:15:05.680Z,77.43
2022-09-12T07:16:10.283Z,75.71
2022-09-12T07:17:13.510Z,75.98
2022-09-12T07:18:16.565Z,75.57
2022-09-12T07:19:19.548Z,75.76
2022-09-12T07:20:23.400Z,76.52
2022-09-12T07:21:27.104Z,76.15
2022-09-12T07:22:30.246Z,76.19
2022-09-12T07:23:33.414Z,75.62
2022-09-12T07:24:37.427Z,75.52
2022-09-12T07:25:40.400Z,74.57
2022-09-12T07:26:44.220Z,72.78
2022-09-12T07:27:51.012Z,71.25
2022-09-12T07:29:03.951Z,71.93
2022-09-12T07:30:17.900Z,70.95
2022-09-12T07:31:25.728Z,71.74
2022-09-12T07:32:28.758Z,70.08
2022-09-12T07:33:32.620Z,70.04
2022-09-12T07:34:35.942Z,69.84
2022-09-12T07:35:39.375Z,69.24
2022-09-12T07:36:42.423Z,68.06
2022-09-12T07:37:45.800Z,68.00
2022-09-12T07:38:48.962Z,67.61
2022-09-12T07:39:52.791Z,66.11
2022-09-12T07:40:55.756Z,66.48
2022-09-12T07:41:58.846Z,64.96
2022-09-12T07:43:03.376Z,64.77
2022-09-12T07:44:09.569Z,64.15
2022-09-12T07:45:13.089Z,63.18
2022-09-12T07:46:16.849Z,63.26
2022-09-12T07:47:19.860Z,62.45
2022-09-12T07:48:23.390Z,61.33
2022-09-12T07:49:30.669Z,61.62
2022-09-12T07:50:33.711Z,60.07
2022-09-12T07:51:36.802Z,59.27
2022-09-12T07:52:40.022Z,60.05
2022-09-12T07:53:43.582Z,61.12
2022-09-12T07:54:46.558Z,59.02
2022-09-12T07:55:56.772Z,55.72
2022-09-12T07:56:59.938Z,55.81
2022-09-12T07:58:03.885Z,56.29
2022-09-12T07:59:08.260Z,56.41
2022-09-12T08:00:11.645Z,55.66
2022-09-12T08:01:20.659Z,55.93
2022-09-12T08:02:23.714Z,54.52
2022-09-12T08:03:26.748Z,55.56
2022-09-12T08:04:30.694Z,54.84
2022-09-12T08:05:33.634Z,54.81
2022-09-12T08:06:37.137Z,54.45
2022-09-12T08:07:40.271Z,54.59
2022-09-12T08:08:44.082Z,53.34
2022-09-12T08:09:47.619Z,51.73
2022-09-12T08:10:57.732Z,52.86
2022-09-12T08:12:01.026Z,52.36
2022-09-12T08:13:04.198Z,51.21
2022-09-12T08:14:07.263Z,51.27
2022-09-12T08:15:10.550Z,50.68
2022-09-12T08:16:22.227Z,51.64
2022-09-12T08:17:25.972Z,51.19
2022-09-12T08:18:30.210Z,51.03
2022-09-12T08:19:33.205Z,49.48
2022-09-12T08:20:37.408Z,50.56
2022-09-12T08:21:40.389Z,48.87
2022-09-12T08:22:43.589Z,49.07
2022-09-12T08:23:47.599Z,49.07
2022-09-12T08:24:51.180Z,48.82
2022-09-12T08:25:57.437Z,49.25
2022-09-12T08:27:00.430Z,49.09
2022-09-12T08:28:03.600Z,48.68
2022-09-12T08:29:09.477Z,48.13
2022-09-12T08:30:13.744Z,47.36
2022-09-12T08:31:19.298Z,48.64
2022-09-12T08:32:22.281Z,49.40
2022-09-12T08:33:27.490Z,49.31
2022-09-12T08:34:30.605Z,47.97
2022-09-12T08:35:36.592Z,46.08
2022-09-12T08:36:39.988Z,47.07
2022-09-12T08:37:43.090Z,47.47
2022-09-12T08:38:48.161Z,47.93
2022-09-12T08:39:53.212Z,48.88
2022-09-12T08:41:18.231Z,46.79
2022-09-12T08:42:45.797Z,47.16
2022-09-12T08:44:10.459Z,46.98
2022-09-12T08:45:23.018Z,45.92
2022-09-12T08:46:33.738Z,45.23
2022-09-12T08:47:41.738Z,44.80
2022-09-12T08:48:46.981Z,45.41
2022-09-12T08:50:08.362Z,47.19
2022-09-12T08:51:14.240Z,46.61
2022-09-12T08:52:48.584Z,46.34
2022-09-12T08:53:56.585Z,45.66
2022-09-12T08:55:01.165Z,47.58
2022-09-12T08:56:08.596Z,46.99
2022-09-12T08:57:13.070Z,45.97
2022-09-12T08:58:24.598Z,46.80
2022-09-12T08:59:38.328Z,47.33
2022-09-12T09:01:07.593Z,47.91
2022-09-12T09:02:48.754Z,48.00
2022-09-12T09:04:10.785Z,47.71
2022-09-12T09:05:20.565Z,47.79
2022-09-12T09:06:44.361Z,47.53
2022-09-12T09:08:15.826Z,46.45
2022-09-12T09:09:36.914Z,47.32
2022-09-12T09:11:01.014Z,47.79
2022-09-12T09:12:07.219Z,48.26
2022-09-12T09:13:13.470Z,47.80
2022-09-12T09:14:48.913Z,48.32
2022-09-12T09:16:03.028Z,47.90
2022-09-12T09:17:34.112Z,48.07
2022-09-12T09:18:38.476Z,47.56
2022-09-12T09:19:50.798Z,47.59
2022-09-12T09:21:03.656Z,46.78
2022-09-12T09:22:37.596Z,47.26
2022-09-12T09:23:45.023Z,46.97
2022-09-12T09:25:04.803Z,45.40
2022-09-12T09:26:27.830Z,47.16
2022-09-12T09:27:57.726Z,47.25
2022-09-12T09:29:12.388Z,47.82
2022-09-12T09:30:19.078Z,46.24
2022-09-12T09:31:28.653Z,46.87
2022-09-12T09:32:38.381Z,47.07
2022-09-12T09:33:41.619Z,46.16
2022-09-12T09:34:46.474Z,46.78
2022-09-12T09:36:10.940Z,46.29
2022-09-12T09:37:21.049Z,46.59
2022-09-12T09:38:34.948Z,46.68
2022-09-12T09:40:19.784Z,46.43
2022-09-12T09:41:31.347Z,46.75
2022-09-12T09:42:47.159Z,46.94
2022-09-12T09:43:50.472Z,46.59
2022-09-12T09:44:56.513Z,47.08
2022-09-12T09:46:00.775Z,46.87
2022-09-12T09:47:04.121Z,45.40
2022-09-12T09:48:19.655Z,46.54
2022-09-12T09:49:23.831Z,46.52
2022-09-12T09:50:27.157Z,46.42
2022-09-12T09:51:36.520Z,45.51
2022-09-12T09:52:40.483Z,46.29
2022-09-12T09:53:47.097Z,45.42
2022-09-12T09:54:55.428Z,44.75
2022-09-12T09:56:03.780Z,45.28
2022-09-12T09:57:36.045Z,45.19
2022-09-12T09:58:40.463Z,43.37
2022-09-12T09:59:43.482Z,43.74
2022-09-12T10:00:47.995Z,43.63
2022-09-12T10:02:04.045Z,43.90
2022-09-12T10:03:13.735Z,43.35
2022-09-12T10:04:29.609Z,43.10
2022-09-12T10:05:36.097Z,42.77
2022-09-12T10:06:40.350Z,40.65
2022-09-12T10:07:50.944Z,40.00
2022-09-12T10:09:24.539Z,40.43
2022-09-12T10:10:27.831Z,40.82
2022-09-12T10:11:32.964Z,41.06
2022-09-12T10:12:39.249Z,39.86
2022-09-12T10:13:54.755Z,39.73
2022-09-12T10:15:02.685Z,40.28
2022-09-12T10:16:19.488Z,41.13
2022-09-12T10:17:34.196Z,42.22
2022-09-12T10:18:42.647Z,43.34
2022-09-12T10:19:52.695Z,43.08
2022-09-12T10:21:50.945Z,43.40
2022-09-12T10:22:54.131Z,44.11
2022-09-12T10:24:17.092Z,44.07
2022-09-12T10:25:21.531Z,44.13
2022-09-12T10:26:33.388Z,44.17
2022-09-12T10:27:36.946Z,44.10
2022-09-12T10:28:43.895Z,44.44
2022-09-12T10:30:21.859Z,44.50
2022-09-12T10:31:43.365Z,44.31
2022-09-12T10:32:52.233Z,44.05
2022-09-12T10:34:28.345Z,43.08
2022-09-12T10:35:44.048Z,43.26
2022-09-12T10:36:54.521Z,40.03
2022-09-12T10:38:02.566Z,41.12
2022-09-12T10:39:07.182Z,41.74
2022-09-12T10:40:24.159Z,41.85
2022-09-12T10:41:37.560Z,42.22
2022-09-12T10:42:51.025Z,42.46
2022-09-12T10:44:07.269Z,42.44
2022-09-12T10:45:22.905Z,43.09
2022-09-12T10:46:31.570Z,44.84
2022-09-12T10:47:34.780Z,44.78
2022-09-12T10:48:38.996Z,44.77
2022-09-12T10:49:42.031Z,44.55
2022-09-12T10:50:45.058Z,45.79
2022-09-12T10:51:49.164Z,44.97
2022-09-12T10:52:53.014Z,45.53
2022-09-12T10:54:00.113Z,46.26
2022-09-12T10:55:03.400Z,45.38
2022-09-12T10:56:33.848Z,45.95
2022-09-12T10:57:39.643Z,46.52
2022-09-12T10:58:51.433Z,47.26
2022-09-12T11:00:18.074Z,47.82
2022-09-12T11:01:47.394Z,47.74
2022-09-12T11:03:16.281Z,47.89
2022-09-12T11:05:07.596Z,47.65
2022-09-12T11:06:16.896Z,48.33
2022-09-12T11:08:02.812Z,48.67
2022-09-12T11:09:27.637Z,49.83
2022-09-12T11:11:00.417Z,49.91
2022-09-12T11:12:20.268Z,50.11
2022-09-12T11:13:37.376Z,50.46
2022-09-12T11:15:00.855Z,51.08
2022-09-12T11:16:35.030Z,50.00
2022-09-12T11:17:52.213Z,50.44
2022-09-12T11:19:10.049Z,50.92
2022-09-12T11:20:21.965Z,51.31
2022-09-12T11:21:27.728Z,52.35
2022-09-12T11:23:11.984Z,52.39
2022-09-12T11:24:29.499Z,53.03
2022-09-12T11:25:46.369Z,53.39
2022-09-12T11:26:54.981Z,53.61
2022-09-12T11:28:17.558Z,53.69
2022-09-12T11:29:41.328Z,53.96
2022-09-12T11:31:08.218Z,53.98
2022-09-12T11:32:42.081Z,53.86
2022-09-12T11:33:53.935Z,54.13
2022-09-12T11:35:25.396Z,54.18
2022-09-12T11:36:40.624Z,54.38
2022-09-12T11:37:49.771Z,54.58
2022-09-12T11:39:02.360Z,54.41
2022-09-12T11:40:34.318Z,54.36
2022-09-12T11:41:41.895Z,54.15
2022-09-12T11:42:47.793Z,53.92
2022-09-12T11:43:51.999Z,53.81
2022-09-12T11:45:13.184Z,54.17
2022-09-12T11:46:18.868Z,54.99
2022-09-12T11:47:25.781Z,54.99
2022-09-12T11:48:59.533Z,55.14
2022-09-12T11:50:16.189Z,55.03
2022-09-12T11:51:24.087Z,54.91
2022-09-12T11:52:39.040Z,55.15
2022-09-12T11:53:45.511Z,55.87
2022-09-12T11:55:09.472Z,55.65
2022-09-12T11:56:18.319Z,55.97
2022-09-12T11:57:25.552Z,55.64
2022-09-12T11:58:31.773Z,55.81
2022-09-12T11:59:45.861Z,55.94
2022-09-12T12:00:53.489Z,56.05
2022-09-12T12:02:00.136Z,55.83
2022-09-12T12:03:10.734Z,54.44
2022-09-12T12:04:19.029Z,53.47
2022-09-12T12:05:27.201Z,53.40
2022-09-12T12:06:52.973Z,52.99
2022-09-12T12:07:59.011Z,51.22
2022-09-12T12:09:04.694Z,51.28
2022-09-12T12:10:24.471Z,51.46
2022-09-12T12:11:35.922Z,51.82
2022-09-12T12:12:39.194Z,52.14
2022-09-12T12:13:51.294Z,52.25
2022-09-12T12:14:59.541Z,52.41
2022-09-12T12:16:05.548Z,52.77
2022-09-12T12:17:20.102Z,52.88
2022-09-12T12:18:26.116Z,52.57
2022-09-12T12:19:38.187Z,51.79
2022-09-12T12:20:41.730Z,52.25
2022-09-12T12:21:47.664Z,51.19
2022-09-12T12:22:57.044Z,52.23
2022-09-12T12:24:09.285Z,52.13
2022-09-12T12:25:12.530Z,50.58
2022-09-12T12:26:40.302Z,50.12
2022-09-12T12:27:53.805Z,49.06
2022-09-12T12:28:59.586Z,49.16
2022-09-12T12:30:02.842Z,48.93
2022-09-12T12:31:06.021Z,48.52
2022-09-12T12:32:11.729Z,47.46
2022-09-12T12:33:14.843Z,48.15
2022-09-12T12:34:28.145Z,47.64
2022-09-12T12:35:56.890Z,47.17
2022-09-12T12:37:19.409Z,47.43
2022-09-12T12:38:32.645Z,47.81
2022-09-12T12:39:41.433Z,47.24
2022-09-12T12:40:44.572Z,47.49
2022-09-12T12:41:47.711Z,48.22
2022-09-12T12:43:04.758Z,48.08
2022-09-12T12:44:48.686Z,47.92
2022-09-12T12:46:09.707Z,48.11
2022-09-12T12:47:36.787Z,47.74
2022-09-12T12:49:19.020Z,47.04
2022-09-12T12:50:27.485Z,46.98
2022-09-12T12:51:44.361Z,45.81
2022-09-12T12:52:47.429Z,45.88
2022-09-12T12:53:52.361Z,46.07
2022-09-12T12:55:03.561Z,46.42
2022-09-12T12:56:44.094Z,46.79
2022-09-12T12:57:55.842Z,46.60
2022-09-12T12:59:02.639Z,47.00
2022-09-12T13:00:30.851Z,46.68
2022-09-12T13:01:41.179Z,46.82
2022-09-12T13:02:56.391Z,46.74
2022-09-12T13:04:01.678Z,46.44
2022-09-12T13:05:16.736Z,46.36
2022-09-12T13:06:37.848Z,46.66
2022-09-12T13:07:41.139Z,45.62
2022-09-12T13:09:00.157Z,45.75
2022-09-12T13:10:05.830Z,46.23
2022-09-12T13:11:14.753Z,46.41
2022-09-12T13:12:37.178Z,46.47
2022-09-12T13:13:52.566Z,47.23
2022-09-12T13:15:00.618Z,47.88
2022-09-12T13:16:04.039Z,48.32
2022-09-12T13:17:08.691Z,48.62
2022-09-12T13:18:42.694Z,48.43
2022-09-12T13:19:47.498Z,48.77
2022-09-12T13:21:04.361Z,48.83
2022-09-12T13:22:10.756Z,48.72
2022-09-12T13:23:31.867Z,49.07
2022-09-12T13:24:44.887Z,49.20
2022-09-12T13:25:54.737Z,49.58
2022-09-12T13:26:59.060Z,48.71
2022-09-12T13:28:20.527Z,48.98
2022-09-12T13:29:26.213Z,49.37
2022-09-12T13:30:35.168Z,49.45
2022-09-12T13:31:39.515Z,49.43
2022-09-12T13:32:47.298Z,49.28
2022-09-12T13:33:55.235Z,49.14
2022-09-12T13:35:23.231Z,49.03
2022-09-12T13:36:40.573Z,47.97
2022-09-12T13:37:57.163Z,48.68
2022-09-12T13:39:50.102Z,47.09
2022-09-12T13:41:19.191Z,46.85
2022-09-12T13:42:48.956Z,46.91
2022-09-12T13:43:54.848Z,47.79
2022-09-12T13:45:06.001Z,47.87
2022-09-12T13:46:14.737Z,48.45
2022-09-12T13:47:30.269Z,48.36
2022-09-12T13:48:35.419Z,49.22
2022-09-12T13:49:41.426Z,48.45
2022-09-12T13:50:58.298Z,48.68
2022-09-12T13:52:04.310Z,48.41
2022-09-12T13:53:15.938Z,47.86
2022-09-12T13:54:24.309Z,48.01
2022-09-12T13:55:40.944Z,48.35
2022-09-12T13:56:49.484Z,48.80
2022-09-12T13:58:06.826Z,49.19
2022-09-12T13:59:13.137Z,50.16
2022-09-12T14:00:22.600Z,50.26
2022-09-12T14:01:39.146Z,51.15
2022-09-12T14:02:42.414Z,50.84
2022-09-12T14:04:15.090Z,50.09
2022-09-12T14:05:24.397Z,50.73
2022-09-12T14:06:27.870Z,50.33
2022-09-12T14:07:32.140Z,50.23
2022-09-12T14:08:41.456Z,51.06
2022-09-12T14:09:47.230Z,51.39
2022-09-12T14:10:53.873Z,51.79
2022-09-12T14:11:58.000Z,51.69
2022-09-12T14:13:04.447Z,52.22
2022-09-12T14:14:22.162Z,52.08
2022-09-12T14:15:29.406Z,52.33
2022-09-12T14:16:40.283Z,52.80
2022-09-12T14:17:51.973Z,53.03
2022-09-12T14:18:56.502Z,53.26
2022-09-12T14:20:04.121Z,53.21
2022-09-12T14:21:23.110Z,53.30
2022-09-12T14:22:32.083Z,53.78
2022-09-12T14:23:36.639Z,53.83
2022-09-12T14:24:40.147Z,53.96
2022-09-12T14:25:45.344Z,54.17
2022-09-12T14:26:50.745Z,54.40
2022-09-12T14:27:56.061Z,54.46
2022-09-12T14:29:00.680Z,54.75
2022-09-12T14:30:09.211Z,54.78
2022-09-12T14:31:18.499Z,54.17
2022-09-12T14:32:24.635Z,53.41
2022-09-12T14:33:29.341Z,53.07
2022-09-12T14:34:32.445Z,52.79
2022-09-12T14:35:40.265Z,52.60
2022-09-12T14:36:50.995Z,52.47
2022-09-12T14:37:54.249Z,52.91
2022-09-12T14:39:02.277Z,52.26
2022-09-12T14:40:19.156Z,51.46
2022-09-12T14:41:26.361Z,50.69
2022-09-12T14:42:32.313Z,49.51
2022-09-12T14:43:44.744Z,49.08
2022-09-12T14:44:53.625Z,48.60
2022-09-12T14:45:59.959Z,48.14
2022-09-12T14:47:23.474Z,47.86
2022-09-12T14:48:32.042Z,49.00
2022-09-12T14:49:36.945Z,49.36
2022-09-12T14:50:42.216Z,49.43
2022-09-12T14:51:51.599Z,49.98
2022-09-12T14:53:38.019Z,50.35
2022-09-12T14:54:44.122Z,51.11
2022-09-12T14:56:11.699Z,51.43
2022-09-12T14:57:39.760Z,51.99
2022-09-12T14:58:42.982Z,52.59
2022-09-12T14:59:46.169Z,52.78
2022-09-12T15:00:53.155Z,52.48